Time;durP1;ratioP1;P1;durP2;ratioP2;P2;SDS_P1;SDS_P2;PMS_P1;PMS_P2;Temp;Humidity;BMP_temperature;BMP_pressure;BME280_temperature;BME280_humidity;BME280_pressure;Samples;Min_cycle;Max_cycle;Signal;HPM_P1;HPM_P2
2023/09/07 00:01:27;;;;;;;;;;;;;;;;;;5091620;27;19913;-71
2023/09/07 00:04:51;;;;;;;;;;;;;;;;;;5132838;27;20225;-70
2023/09/07 00:07:17;;;;;;;;;;;;;;;;;;5132282;28;20002;-70
2023/09/07 00:13:45;;;;;;;;;;;;;;;;;;5091725;28;20292;-70
2023/09/07 00:16:11;;;;;;;;;;;;;;;;;;5090980;28;20003;-70
2023/09/07 00:18:37;;;;;;;;;;;;;;;;;;5091265;28;20273;-70
2023/09/07 00:21:03;;;;;;;;;;;;;;;;;;5091259;28;20011;-70
2023/09/07 00:23:29;;;;;;;;;;;;;;;;;;5090788;28;19915;-70
2023/09/07 00:28:00;;;;;;;;;;;;;;;;;;5153270;27;20013;-70
2023/09/07 00:30:27;;;;;;;;;;;;;;;;;;5133906;27;20457;-70
2023/09/07 00:32:53;;;;;;;;;;;;;;;;;;5152767;27;19938;-71
2023/09/07 00:35:19;;;;;;;;;;;;;;;;;;5152745;27;19915;-71
2023/09/07 00:40:17;;;;;;;;;;;;;;;;;;5092302;27;19923;-70
2023/09/07 00:42:43;;;;;;;;;;;;;;;;;;5091868;28;20015;-70
2023/09/07 00:45:09;;;;;;;;;;;;;;;;;;5090868;28;19956;-71
2023/09/07 00:47:36;;;;;;;;;;;;;;;;;;5091380;28;19938;-71
2023/09/07 00:50:02;;;;;;;;;;;;;;;;;;5091207;28;19915;-71
2023/09/07 00:52:28;;;;;;;;;;;;;;;;;;5090776;28;20284;-71
2023/09/07 00:54:54;;;;;;;;;;;;;;;;;;5091205;28;19916;-71
2023/09/07 00:57:20;;;;;;;;;;;;;;;;;;5089328;28;20361;-71
2023/09/07 00:59:46;;;;;;;;;;;;;;;;;;5090942;28;19920;-71
2023/09/07 01:02:12;;;;;;;;;;;;;;;;;;5091405;28;20385;-71
2023/09/07 01:04:38;;;;;;;;;;;;;;;;;;5090782;28;20360;-71
2023/09/07 01:07:04;;;;;;;;;;;;;;;;;;5090922;28;19912;-71
2023/09/07 01:09:30;;;;;;;;;;;;;;;;;;5090847;28;20258;-71
2023/09/07 01:11:56;;;;;;;;;;;;;;;;;;5090375;28;19919;-71
2023/09/07 01:14:22;;;;;;;;;;;;;;;;;;5090795;28;19908;-71
2023/09/07 01:17:35;;;;;;;;;;;;;;;;;;5091687;28;19918;-70
2023/09/07 01:20:05;;;;;;;;;;;;;;;;;;5091069;28;20351;-71
2023/09/07 01:22:31;;;;;;;;;;;;;;;;;;5089957;28;19969;-70
2023/09/07 01:28:09;;;;;;;;;;;;;;;;;;5071463;28;19923;-71
2023/09/07 01:31:25;;;;;;;;;;;;;;;;;;5092172;28;19916;-71
2023/09/07 01:33:51;;;;;;;;;;;;;;;;;;5090958;28;19995;-70
2023/09/07 01:36:17;;;;;;;;;;;;;;;;;;5089973;28;19912;-71
2023/09/07 01:41:21;;;;;;;;;;;;;;;;;;5091202;27;19923;-71
2023/09/07 01:44:27;;;;;;;;;;;;;;;;;;5071695;28;19923;-72
2023/09/07 01:47:40;;;;;;;;;;;;;;;;;;5091370;27;20287;-71
2023/09/07 01:50:06;;;;;;;;;;;;;;;;;;5091499;28;20007;-71
2023/09/07 01:52:32;;;;;;;;;;;;;;;;;;5091817;28;20307;-71
2023/09/07 01:57:13;;;;;;;;;;;;;;;;;;5091544;27;19916;-71
2023/09/07 01:59:39;;;;;;;;;;;;;;;;;;5091394;28;20003;-70
2023/09/07 02:02:05;;;;;;;;;;;;;;;;;;5090897;28;20232;-71
2023/09/07 02:04:31;;;;;;;;;;;;;;;;;;5091292;28;19909;-71
2023/09/07 02:06:57;;;;;;;;;;;;;;;;;;5091147;28;19954;-71
2023/09/07 02:09:23;;;;;;;;;;;;;;;;;;5090757;28;19916;-71
2023/09/07 02:11:49;;;;;;;;;;;;;;;;;;5091072;28;19909;-71
2023/09/07 02:14:15;;;;;;;;;;;;;;;;;;5090902;28;20360;-71
2023/09/07 02:19:06;;;;;;;;;;;;;;;;;;5153428;27;20010;-71
2023/09/07 02:21:32;;;;;;;;;;;;;;;;;;5134389;27;19958;-70
2023/09/07 02:23:58;;;;;;;;;;;;;;;;;;5134200;27;19907;-70
2023/09/07 02:26:24;;;;;;;;;;;;;;;;;;5152729;27;19912;-70
2023/09/07 02:30:48;;;;;;;;;;;;;;;;;;5090899;27;19912;-70
2023/09/07 02:33:42;;;;;;;;;;;;;;;;;;5091387;28;19916;-70
2023/09/07 02:37:38;;;;;;;;;;;;;;;;;;5091060;27;19917;-71
2023/09/07 02:40:08;;;;;;;;;;;;;;;;;;5091337;28;20456;-71
2023/09/07 02:42:34;;;;;;;;;;;;;;;;;;5091223;28;19915;-71
2023/09/07 02:45:00;;;;;;;;;;;;;;;;;;5090886;28;19912;-72
2023/09/07 02:51:11;;;;;;;;;;;;;;;;;;5091198;27;19938;-71
2023/09/07 02:57:14;;;;;;;;;;;;;;;;;;5091198;27;19916;-71
2023/09/07 03:00:12;;;;;;;;;;;;;;;;;;5091713;28;20402;-70
2023/09/07 03:02:38;;;;;;;;;;;;;;;;;;5091246;28;20007;-70
2023/09/07 03:05:04;;;;;;;;;;;;;;;;;;5090815;28;20371;-71
2023/09/07 03:07:30;;;;;;;;;;;;;;;;;;5091140;28;20003;-70
2023/09/07 03:11:33;;;;;;;;;;;;;;;;;;5111848;27;19913;-70
2023/09/07 03:13:59;;;;;;;;;;;;;;;;;;5111923;28;19944;-70
2023/09/07 03:18:44;;;;;;;;;;;;;;;;;;5091079;27;20398;-71
2023/09/07 03:21:10;;;;;;;;;;;;;;;;;;5091304;28;20003;-71
2023/09/07 03:23:36;;;;;;;;;;;;;;;;;;5091630;28;20368;-70
2023/09/07 03:26:02;;;;;;;;;;;;;;;;;;5090863;28;20375;-70
2023/09/07 03:29:41;;;;;;;;;;;;;;;;;;5091902;27;19936;-71
2023/09/07 03:33:26;;;;;;;;;;;;;;;;;;5091221;27;19916;-70
2023/09/07 03:36:03;;;;;;;;;;;;;;;;;;5091676;28;19923;-70
2023/09/07 03:38:29;;;;;;;;;;;;;;;;;;5091309;28;20007;-70
2023/09/07 03:40:55;;;;;;;;;;;;;;;;;;5089523;28;20356;-71
2023/09/07 03:43:21;;;;;;;;;;;;;;;;;;5089969;28;19954;-71
2023/09/07 03:46:53;;;;;;;;;;;;;;;;;;5091117;27;19917;-71
2023/09/07 03:49:19;;;;;;;;;;;;;;;;;;5091606;28;19918;-70
2023/09/07 03:51:45;;;;;;;;;;;;;;;;;;5091175;28;19908;-70
2023/09/07 03:54:11;;;;;;;;;;;;;;;;;;5090912;28;19915;-70
2023/09/07 03:57:29;;;;;;;;;;;;;;;;;;5091496;28;19923;-70
2023/09/07 03:59:55;;;;;;;;;;;;;;;;;;5091597;28;20358;-70
2023/09/07 04:02:21;;;;;;;;;;;;;;;;;;5090887;28;19962;-70
2023/09/07 04:05:18;;;;;;;;;;;;;;;;;;5091950;27;19923;-70
2023/09/07 04:08:59;;;;;;;;;;;;;;;;;;5152468;27;20004;-70
2023/09/07 04:11:26;;;;;;;;;;;;;;;;;;5144616;27;20020;-70
2023/09/07 04:13:52;;;;;;;;;;;;;;;;;;5132005;28;19939;-70
2023/09/07 04:16:18;;;;;;;;;;;;;;;;;;5131018;28;19943;-70
2023/09/07 04:18:44;;;;;;;;;;;;;;;;;;5130443;28;19933;-71
2023/09/07 04:22:04;;;;;;;;;;;;;;;;;;5090723;28;19923;-71
2023/09/07 04:24:30;;;;;;;;;;;;;;;;;;5089318;28;20351;-70
2023/09/07 04:26:56;;;;;;;;;;;;;;;;;;5089134;28;19908;-70
2023/09/07 04:29:22;;;;;;;;;;;;;;;;;;5088777;28;19938;-71
2023/09/07 04:33:20;;;;;;;;;;;;;;;;;;5089146;27;19919;-70
2023/09/07 04:37:24;;;;;;;;;;;;;;;;;;5088744;27;19923;-71
2023/09/07 04:39:50;;;;;;;;;;;;;;;;;;5091372;28;20006;-70
2023/09/07 04:42:16;;;;;;;;;;;;;;;;;;5090812;28;19947;-70
2023/09/07 04:45:55;;;;;;;;;;;;;;;;;;5091424;28;19923;-71
2023/09/07 04:48:21;;;;;;;;;;;;;;;;;;5091335;28;20007;-71
2023/09/07 04:52:56;;;;;;;;;;;;;;;;;;5112081;27;19912;-70
2023/09/07 04:55:22;;;;;;;;;;;;;;;;;;5111731;28;20006;-71
2023/09/07 04:59:24;;;;;;;;;;;;;;;;;;5091683;27;19917;-71
2023/09/07 05:01:50;;;;;;;;;;;;;;;;;;5090188;28;19912;-72
2023/09/07 05:04:16;;;;;;;;;;;;;;;;;;5090869;28;19908;-71
2023/09/07 05:10:24;;;;;;;;;;;;;;;;;;5091707;27;19916;-71
2023/09/07 05:12:50;;;;;;;;;;;;;;;;;;5089974;28;19999;-72
2023/09/07 05:16:04;;;;;;;;;;;;;;;;;;5113658;27;20022;-70
2023/09/07 05:26:47;;;;;;;;;;;;;;;;;;5099928;27;19920;-71
2023/09/07 05:31:04;;;;;;;;;;;;;;;;;;5108333;27;20303;-69
2023/09/07 05:33:31;;;;;;;;;;;;;;;;;;5108499;28;19916;-69
2023/09/07 05:38:28;;;;;;;;;;;;;;;;;;5062938;27;19927;-69
2023/09/07 05:40:54;;;;;;;;;;;;;;;;;;5066558;28;19916;-70
2023/09/07 05:43:20;;;;;;;;;;;;;;;;;;5067562;28;19912;-69
2023/09/07 05:45:47;;;;;;;;;;;;;;;;;;5066450;28;20367;-69
2023/09/07 05:48:13;;;;;;;;;;;;;;;;;;5064235;28;19939;-72
2023/09/07 05:50:39;;;;;;;;;;;;;;;;;;5062851;28;19963;-71
2023/09/07 05:53:05;;;;;;;;;;;;;;;;;;5066034;28;19920;-69
2023/09/07 05:55:31;;;;;;;;;;;;;;;;;;5066771;28;20027;-69
2023/09/07 05:59:00;;;;;;;;;;;;;;;;;;5070784;27;19947;-70
2023/09/07 06:01:26;;;;;;;;;;;;;;;;;;5083052;28;19913;-68
2023/09/07 06:03:52;;;;;;;;;;;;;;;;;;5069143;28;19913;-71
2023/09/07 06:09:37;;;;;;;;;;;;;;;;;;5090285;27;19919;-71
2023/09/07 06:13:01;;;;;;;;;;;;;;;;;;5091190;27;19920;-70
2023/09/07 06:15:27;;;;;;;;;;;;;;;;;;5089809;28;20364;-70
2023/09/07 06:17:54;;;;;;;;;;;;;;;;;;5099854;28;19928;-70
2023/09/07 06:21:00;;;;;;;;;;;;;;;;;;5089942;27;19923;-67
2023/09/07 06:23:26;;;;;;;;;;;;;;;;;;5085819;28;20003;-67
2023/09/07 06:27:32;;;;;;;;;;;;;;;;;;5070698;27;20353;-66
2023/09/07 06:29:58;;;;;;;;;;;;;;;;;;5068386;28;19913;-67
2023/09/07 06:32:24;;;;;;;;;;;;;;;;;;5068656;28;19931;-67
2023/09/07 06:36:39;;;;;;;;;;;;;;;;;;5133969;27;20025;-68
2023/09/07 06:42:22;;;;;;;;;;;;;;;;;;5089863;27;19917;-71
2023/09/07 06:45:22;;;;;;;;;;;;;;;;;;5088852;27;20501;-71
2023/09/07 06:50:41;;;;;;;;;;;;;;;;;;5149050;27;19916;-71
2023/09/07 06:53:08;;;;;;;;;;;;;;;;;;5138561;27;19919;-71
2023/09/07 06:55:34;;;;;;;;;;;;;;;;;;5129334;27;19924;-71
2023/09/07 06:58:58;;;;;;;;;;;;;;;;;;5050678;28;21497;-72
2023/09/07 07:03:58;;;;;;;;;;;;;;;;;;5084613;27;19912;-70
2023/09/07 07:06:24;;;;;;;;;;;;;;;;;;5085775;28;19912;-70
2023/09/07 07:08:50;;;;;;;;;;;;;;;;;;5083782;28;19908;-71
2023/09/07 07:13:11;;;;;;;;;;;;;;;;;;5127978;27;20584;-71
2023/09/07 07:15:37;;;;;;;;;;;;;;;;;;5124986;28;19916;-71
2023/09/07 07:18:08;;;;;;;;;;;;;;;;;;5123232;28;19931;-71
2023/09/07 07:20:34;;;;;;;;;;;;;;;;;;5124852;28;19907;-70
2023/09/07 07:23:27;;;;;;;;;;;;;;;;;;5084160;28;19922;-71
2023/09/07 07:25:54;;;;;;;;;;;;;;;;;;5084578;28;19912;-71
2023/09/07 07:28:19;;;;;;;;;;;;;;;;;;5084342;28;20222;-71
2023/09/07 07:30:47;;;;;;;;;;;;;;;;;;5086611;28;19913;-71
2023/09/07 07:33:13;;;;;;;;;;;;;;;;;;5087906;28;20365;-72
2023/09/07 07:35:38;;;;;;;;;;;;;;;;;;5087803;28;19961;-72
2023/09/07 07:40:31;;;;;;;;;;;;;;;;;;5102810;27;20302;-71
2023/09/07 07:44:49;;;;;;;;;;;;;;;;;;5148721;27;19922;-70
2023/09/07 07:47:15;;;;;;;;;;;;;;;;;;5151132;27;20328;-71
2023/09/07 07:50:12;;;;;;;;;;;;;;;;;;5138215;27;19919;-71
2023/09/07 07:52:38;;;;;;;;;;;;;;;;;;5106122;28;20383;-71
2023/09/07 07:55:04;;;;;;;;;;;;;;;;;;5090593;28;19908;-71
2023/09/07 07:58:17;;;;;;;;;;;;;;;;;;5090501;27;19916;-71
2023/09/07 08:00:47;;;;;;;;;;;;;;;;;;5074039;28;19912;-71
2023/09/07 08:03:13;;;;;;;;;;;;;;;;;;5077808;28;20675;-72
2023/09/07 08:05:39;;;;;;;;;;;;;;;;;;5070449;28;19917;-72
2023/09/07 08:08:05;;;;;;;;;;;;;;;;;;5071153;28;19913;-71
2023/09/07 08:10:31;;;;;;;;;;;;;;;;;;5076718;28;19912;-71
2023/09/07 08:13:00;;;;;;;;;;;;;;;;;;5073611;28;20278;-71
2023/09/07 08:15:27;;;;;;;;;;;;;;;;;;5073729;28;19908;-71
2023/09/07 08:17:53;;;;;;;;;;;;;;;;;;5081348;28;19923;-71
2023/09/07 08:20:19;;;;;;;;;;;;;;;;;;5086018;28;20355;-71
2023/09/07 08:22:45;;;;;;;;;;;;;;;;;;5086488;28;20173;-71
2023/09/07 08:25:14;;;;;;;;;;;;;;;;;;5086427;28;19913;-72
2023/09/07 08:27:44;;;;;;;;;;;;;;;;;;5085736;28;19940;-71
2023/09/07 08:30:09;;;;;;;;;;;;;;;;;;5085444;28;19916;-71
2023/09/07 08:32:36;;;;;;;;;;;;;;;;;;5085993;28;20383;-71
2023/09/07 08:35:04;;;;;;;;;;;;;;;;;;5089895;28;20003;-71
2023/09/07 08:37:31;;;;;;;;;;;;;;;;;;5087001;28;19925;-71
2023/09/07 08:39:57;;;;;;;;;;;;;;;;;;5089287;28;19919;-71
2023/09/07 08:42:23;;;;;;;;;;;;;;;;;;5088937;28;19916;-71
2023/09/07 08:44:49;;;;;;;;;;;;;;;;;;5085600;28;20281;-71
2023/09/07 08:47:15;;;;;;;;;;;;;;;;;;5086853;28;20325;-72
2023/09/07 08:49:41;;;;;;;;;;;;;;;;;;5086702;28;19908;-71
2023/09/07 08:52:07;;;;;;;;;;;;;;;;;;5087978;28;19935;-72
2023/09/07 08:58:11;;;;;;;;;;;;;;;;;;5081740;27;20521;-69
2023/09/07 09:00:36;;;;;;;;;;;;;;;;;;5093865;28;19912;-67
2023/09/07 09:03:03;;;;;;;;;;;;;;;;;;5086912;28;19922;-68
2023/09/07 09:06:10;;;;;;;;;;;;;;;;;;5067967;28;19923;-70
2023/09/07 09:08:36;;;;;;;;;;;;;;;;;;5071908;28;20003;-70
2023/09/07 09:11:03;;;;;;;;;;;;;;;;;;5067958;28;20007;-68
2023/09/07 09:14:57;;;;;;;;;;;;;;;;;;5088352;27;19926;-70
2023/09/07 09:17:23;;;;;;;;;;;;;;;;;;5087034;28;19912;-71
2023/09/07 09:21:35;;;;;;;;;;;;;;;;;;5078190;27;19920;-76
2023/09/07 09:24:01;;;;;;;;;;;;;;;;;;5080486;28;19916;-74
2023/09/07 09:26:27;;;;;;;;;;;;;;;;;;5065827;28;19917;-73
2023/09/07 09:28:53;;;;;;;;;;;;;;;;;;5055155;28;19923;-71
2023/09/07 09:31:19;;;;;;;;;;;;;;;;;;5064807;28;19920;-72
2023/09/07 09:33:45;;;;;;;;;;;;;;;;;;5063081;28;19920;-79
2023/09/07 09:36:11;;;;;;;;;;;;;;;;;;5061299;28;20106;-83
2023/09/07 09:38:37;;;;;;;;;;;;;;;;;;5059890;28;19913;-82
2023/09/07 09:41:03;;;;;;;;;;;;;;;;;;5065746;28;19939;-85
2023/09/07 09:43:29;;;;;;;;;;;;;;;;;;5067149;28;19913;-83
2023/09/07 09:45:55;;;;;;;;;;;;;;;;;;5060465;28;20016;-87
2023/09/07 09:48:21;;;;;;;;;;;;;;;;;;5072150;28;19913;-87
2023/09/07 09:50:48;;;;;;;;;;;;;;;;;;5063168;28;20417;-86
2023/09/07 09:53:17;;;;;;;;;;;;;;;;;;5058278;28;19956;-74
2023/09/07 09:55:43;;;;;;;;;;;;;;;;;;5064486;28;19984;-73
2023/09/07 09:58:51;;;;;;;;;;;;;;;;;;5104088;27;19916;-72
2023/09/07 10:01:17;;;;;;;;;;;;;;;;;;5099119;28;19912;-74
2023/09/07 10:03:46;;;;;;;;;;;;;;;;;;5107728;28;20364;-72
2023/09/07 10:06:15;;;;;;;;;;;;;;;;;;5076573;28;20383;-72
2023/09/07 10:08:41;;;;;;;;;;;;;;;;;;5084978;28;19940;-72
2023/09/07 10:11:06;;;;;;;;;;;;;;;;;;5082621;28;19950;-73
2023/09/07 10:13:33;;;;;;;;;;;;;;;;;;5101185;28;19915;-71
2023/09/07 10:15:59;;;;;;;;;;;;;;;;;;5100022;28;19981;-71
2023/09/07 10:18:26;;;;;;;;;;;;;;;;;;5120057;27;20395;-73
2023/09/07 10:20:52;;;;;;;;;;;;;;;;;;5086446;28;19909;-73
2023/09/07 10:23:18;;;;;;;;;;;;;;;;;;5091773;28;19917;-73
2023/09/07 10:25:44;;;;;;;;;;;;;;;;;;5088149;28;19947;-72
2023/09/07 10:28:10;;;;;;;;;;;;;;;;;;5084948;28;19971;-70
2023/09/07 10:30:36;;;;;;;;;;;;;;;;;;5086366;28;19916;-71
2023/09/07 10:33:02;;;;;;;;;;;;;;;;;;5087916;28;19912;-72
2023/09/07 10:35:29;;;;;;;;;;;;;;;;;;5085703;28;19920;-68
2023/09/07 10:37:55;;;;;;;;;;;;;;;;;;5086770;28;19955;-69
2023/09/07 10:40:21;;;;;;;;;;;;;;;;;;5085313;28;20620;-70
2023/09/07 10:42:48;;;;;;;;;;;;;;;;;;5104051;28;19923;-69
2023/09/07 10:45:15;;;;;;;;;;;;;;;;;;5094722;28;19924;-69
2023/09/07 10:47:42;;;;;;;;;;;;;;;;;;5089824;28;20356;-71
2023/09/07 10:50:08;;;;;;;;;;;;;;;;;;5089066;28;20007;-70
2023/09/07 10:52:34;;;;;;;;;;;;;;;;;;5090394;28;20292;-69
2023/09/07 10:55:00;;;;;;;;;;;;;;;;;;5086947;28;19912;-69
2023/09/07 10:57:26;;;;;;;;;;;;;;;;;;5088801;28;19927;-69
2023/09/07 10:59:55;;;;;;;;;;;;;;;;;;5101057;28;19917;-68
2023/09/07 11:02:20;;;;;;;;;;;;;;;;;;5095596;28;19916;-72
2023/09/07 11:04:46;;;;;;;;;;;;;;;;;;5086645;28;19912;-69
2023/09/07 11:07:12;;;;;;;;;;;;;;;;;;5086236;28;19959;-71
2023/09/07 11:09:38;;;;;;;;;;;;;;;;;;5079825;28;19916;-71
2023/09/07 11:12:05;;;;;;;;;;;;;;;;;;5079557;28;19912;-71
2023/09/07 11:14:31;;;;;;;;;;;;;;;;;;5073511;28;20035;-73
2023/09/07 11:16:57;;;;;;;;;;;;;;;;;;5072153;28;19952;-71
2023/09/07 11:19:23;;;;;;;;;;;;;;;;;;5070574;28;19950;-70
2023/09/07 11:21:51;;;;;;;;;;;;;;;;;;5085461;28;20437;-70
2023/09/07 11:24:17;;;;;;;;;;;;;;;;;;5071794;28;19915;-68
2023/09/07 11:26:43;;;;;;;;;;;;;;;;;;5104392;28;19971;-70
2023/09/07 11:29:09;;;;;;;;;;;;;;;;;;5072484;28;19999;-69
2023/09/07 11:31:35;;;;;;;;;;;;;;;;;;5070682;28;20353;-69
2023/09/07 11:34:01;;;;;;;;;;;;;;;;;;5072239;28;20007;-69
2023/09/07 11:36:27;;;;;;;;;;;;;;;;;;5071731;28;20006;-69
2023/09/07 11:38:53;;;;;;;;;;;;;;;;;;5071482;28;19967;-71
2023/09/07 11:41:19;;;;;;;;;;;;;;;;;;5072076;28;20396;-69
2023/09/07 11:43:45;;;;;;;;;;;;;;;;;;5072763;28;20064;-70
2023/09/07 11:46:11;;;;;;;;;;;;;;;;;;5072445;28;20394;-69
2023/09/07 11:48:37;;;;;;;;;;;;;;;;;;5073512;28;20288;-69
2023/09/07 11:51:03;;;;;;;;;;;;;;;;;;5073525;28;19931;-70
2023/09/07 11:53:29;;;;;;;;;;;;;;;;;;5071796;28;19916;-70
2023/09/07 11:55:55;;;;;;;;;;;;;;;;;;5072635;28;19945;-70
2023/09/07 11:58:21;;;;;;;;;;;;;;;;;;5074482;28;19920;-70
2023/09/07 12:00:47;;;;;;;;;;;;;;;;;;5075208;28;20045;-69
2023/09/07 12:03:13;;;;;;;;;;;;;;;;;;5074836;28;19916;-70
2023/09/07 12:05:41;;;;;;;;;;;;;;;;;;5072572;28;19923;-71
2023/09/07 12:08:07;;;;;;;;;;;;;;;;;;5072540;28;19913;-73
2023/09/07 12:10:33;;;;;;;;;;;;;;;;;;5072481;28;19913;-69
2023/09/07 12:12:59;;;;;;;;;;;;;;;;;;5071699;28;19916;-71
2023/09/07 12:15:25;;;;;;;;;;;;;;;;;;5070895;28;19987;-69
2023/09/07 12:17:54;;;;;;;;;;;;;;;;;;5071417;28;19916;-68
2023/09/07 12:20:21;;;;;;;;;;;;;;;;;;5070749;28;20360;-67
2023/09/07 12:22:48;;;;;;;;;;;;;;;;;;5071852;28;20473;-67
2023/09/07 12:25:15;;;;;;;;;;;;;;;;;;5072511;28;19918;-69
2023/09/07 12:27:43;;;;;;;;;;;;;;;;;;5072567;28;19909;-67
2023/09/07 12:30:12;;;;;;;;;;;;;;;;;;5073962;28;19917;-70
2023/09/07 12:32:38;;;;;;;;;;;;;;;;;;5074632;28;19909;-69
2023/09/07 12:35:08;;;;;;;;;;;;;;;;;;5073860;28;20003;-70
2023/09/07 12:37:34;;;;;;;;;;;;;;;;;;5074043;28;19928;-70
2023/09/07 12:40:00;;;;;;;;;;;;;;;;;;5073449;28;19908;-71
2023/09/07 12:42:26;;;;;;;;;;;;;;;;;;5073520;28;19913;-70
2023/09/07 12:44:52;;;;;;;;;;;;;;;;;;5071465;28;19912;-73
2023/09/07 12:47:18;;;;;;;;;;;;;;;;;;5071200;28;19915;-73
2023/09/07 12:49:44;;;;;;;;;;;;;;;;;;5071842;28;20012;-73
2023/09/07 12:52:10;;;;;;;;;;;;;;;;;;5071323;28;19961;-74
2023/09/07 12:54:36;;;;;;;;;;;;;;;;;;5070672;28;19909;-73
2023/09/07 12:57:02;;;;;;;;;;;;;;;;;;5070372;28;19920;-73
2023/09/07 12:59:28;;;;;;;;;;;;;;;;;;5072731;28;20284;-73
2023/09/07 13:01:55;;;;;;;;;;;;;;;;;;5073067;28;19914;-73
2023/09/07 13:04:21;;;;;;;;;;;;;;;;;;5073621;28;19991;-73
2023/09/07 13:06:47;;;;;;;;;;;;;;;;;;5062504;28;20027;-73
2023/09/07 13:09:13;;;;;;;;;;;;;;;;;;5052566;28;19909;-73
2023/09/07 13:11:39;;;;;;;;;;;;;;;;;;5052086;28;19954;-73
2023/09/07 13:14:05;;;;;;;;;;;;;;;;;;5052048;28;19927;-73
2023/09/07 13:16:59;;;;;;;;;;;;;;;;;;5090649;27;19912;-74
2023/09/07 13:19:25;;;;;;;;;;;;;;;;;;5087961;28;19919;-74
2023/09/07 13:21:51;;;;;;;;;;;;;;;;;;5089174;28;20296;-75
2023/09/07 13:24:17;;;;;;;;;;;;;;;;;;5088865;28;19908;-74
2023/09/07 13:26:43;;;;;;;;;;;;;;;;;;5089110;28;19918;-74
2023/09/07 13:29:09;;;;;;;;;;;;;;;;;;5089210;28;19962;-74
2023/09/07 13:31:36;;;;;;;;;;;;;;;;;;5087376;28;19909;-73
2023/09/07 13:34:02;;;;;;;;;;;;;;;;;;5090011;28;19908;-74
2023/09/07 13:36:51;;;;;;;;;;;;;;;;;;5109375;27;19922;-74
2023/09/07 13:39:17;;;;;;;;;;;;;;;;;;5108354;28;20428;-73
2023/09/07 13:41:43;;;;;;;;;;;;;;;;;;5109509;28;20425;-73
2023/09/07 13:44:56;;;;;;;;;;;;;;;;;;5110036;27;20410;-74
2023/09/07 13:47:22;;;;;;;;;;;;;;;;;;5110771;28;20301;-74
2023/09/07 13:49:48;;;;;;;;;;;;;;;;;;5111051;28;19908;-74
2023/09/07 13:52:14;;;;;;;;;;;;;;;;;;5110032;28;19978;-73
2023/09/07 13:54:40;;;;;;;;;;;;;;;;;;5110167;28;19931;-74
2023/09/07 13:57:06;;;;;;;;;;;;;;;;;;5111488;28;19912;-73
2023/09/07 13:59:34;;;;;;;;;;;;;;;;;;5109741;28;19916;-74
2023/09/07 14:02:00;;;;;;;;;;;;;;;;;;5111355;28;20268;-74
2023/09/07 14:04:26;;;;;;;;;;;;;;;;;;5111290;28;19941;-74
2023/09/07 14:06:52;;;;;;;;;;;;;;;;;;5110880;28;20000;-74
2023/09/07 14:09:18;;;;;;;;;;;;;;;;;;5112063;28;19908;-74
2023/09/07 14:11:44;;;;;;;;;;;;;;;;;;5111231;28;19961;-74
2023/09/07 14:14:10;;;;;;;;;;;;;;;;;;5110773;28;20317;-74
2023/09/07 14:16:36;;;;;;;;;;;;;;;;;;5111133;28;20379;-74
2023/09/07 14:19:02;;;;;;;;;;;;;;;;;;5110844;28;20359;-73
2023/09/07 14:21:28;;;;;;;;;;;;;;;;;;5109826;28;20402;-73
2023/09/07 14:23:54;;;;;;;;;;;;;;;;;;5110993;28;20296;-74
2023/09/07 14:26:20;;;;;;;;;;;;;;;;;;5110523;28;20342;-74
2023/09/07 14:28:46;;;;;;;;;;;;;;;;;;5110865;28;19951;-74
2023/09/07 14:31:11;;;;;;;;;;;;;;;;;;5110792;28;19908;-74
2023/09/07 14:33:38;;;;;;;;;;;;;;;;;;5110594;28;20264;-74
2023/09/07 14:36:04;;;;;;;;;;;;;;;;;;5109458;28;20293;-74
2023/09/07 14:38:33;;;;;;;;;;;;;;;;;;5110541;28;19958;-74
2023/09/07 14:40:59;;;;;;;;;;;;;;;;;;5110265;28;19908;-74
2023/09/07 14:43:24;;;;;;;;;;;;;;;;;;5108922;28;19927;-75
2023/09/07 14:45:50;;;;;;;;;;;;;;;;;;5110883;28;20380;-75
2023/09/07 14:48:16;;;;;;;;;;;;;;;;;;5110038;28;20385;-75
2023/09/07 14:50:42;;;;;;;;;;;;;;;;;;5110352;28;20364;-74
2023/09/07 14:54:08;;;;;;;;;;;;;;;;;;5112275;27;19916;-73
2023/09/07 14:56:35;;;;;;;;;;;;;;;;;;5112127;28;20332;-73
2023/09/07 14:59:01;;;;;;;;;;;;;;;;;;5110187;28;19908;-73
2023/09/07 15:01:27;;;;;;;;;;;;;;;;;;5111154;28;20310;-74
2023/09/07 15:03:53;;;;;;;;;;;;;;;;;;5111841;28;20007;-74
2023/09/07 15:06:19;;;;;;;;;;;;;;;;;;5111487;28;20394;-74
2023/09/07 15:08:45;;;;;;;;;;;;;;;;;;5111041;28;19950;-74
2023/09/07 15:11:12;;;;;;;;;;;;;;;;;;5111477;28;20355;-74
2023/09/07 15:13:39;;;;;;;;;;;;;;;;;;5111202;28;19959;-74
2023/09/07 15:16:05;;;;;;;;;;;;;;;;;;5110902;28;19908;-74
2023/09/07 15:18:31;;;;;;;;;;;;;;;;;;5111250;28;19908;-74
2023/09/07 15:20:57;;;;;;;;;;;;;;;;;;5111157;28;19919;-74
2023/09/07 15:23:23;;;;;;;;;;;;;;;;;;5109452;28;19908;-74
2023/09/07 15:25:49;;;;;;;;;;;;;;;;;;5111061;28;19908;-74
2023/09/07 15:28:15;;;;;;;;;;;;;;;;;;5110974;28;19923;-75
2023/09/07 15:30:41;;;;;;;;;;;;;;;;;;5110647;28;20221;-74
2023/09/07 15:33:07;;;;;;;;;;;;;;;;;;5110805;28;20318;-74
2023/09/07 15:35:33;;;;;;;;;;;;;;;;;;5110867;28;20003;-74
2023/09/07 15:37:59;;;;;;;;;;;;;;;;;;5110520;28;19908;-74
2023/09/07 15:40:25;;;;;;;;;;;;;;;;;;5110917;28;20000;-74
2023/09/07 15:42:51;;;;;;;;;;;;;;;;;;5110677;28;20070;-74
2023/09/07 15:45:17;;;;;;;;;;;;;;;;;;5108960;28;19919;-74
2023/09/07 15:47:43;;;;;;;;;;;;;;;;;;5110705;28;20292;-74
2023/09/07 15:50:09;;;;;;;;;;;;;;;;;;5109355;28;19931;-74
2023/09/07 15:52:35;;;;;;;;;;;;;;;;;;5109856;28;19920;-74
2023/09/07 16:01:46;;;;;;;;;;;;;;;;;;5111735;27;19922;-73
2023/09/07 16:04:12;;;;;;;;;;;;;;;;;;5111779;28;19998;-72
2023/09/07 16:06:38;;;;;;;;;;;;;;;;;;5111389;28;19966;-75
2023/09/07 16:09:51;;;;;;;;;;;;;;;;;;5112442;27;20275;-73
2023/09/07 16:12:17;;;;;;;;;;;;;;;;;;5111346;28;20007;-73
2023/09/07 16:14:43;;;;;;;;;;;;;;;;;;5110226;28;20330;-73
2023/09/07 16:17:09;;;;;;;;;;;;;;;;;;5111448;28;19999;-73
2023/09/07 16:19:35;;;;;;;;;;;;;;;;;;5111244;28;20348;-73
2023/09/07 16:22:06;;;;;;;;;;;;;;;;;;5111513;28;19915;-73
2023/09/07 16:24:32;;;;;;;;;;;;;;;;;;5111646;28;19908;-73
2023/09/07 16:26:58;;;;;;;;;;;;;;;;;;5110827;28;19915;-73
2023/09/07 16:29:24;;;;;;;;;;;;;;;;;;5111190;28;19916;-73
2023/09/07 16:31:50;;;;;;;;;;;;;;;;;;5111169;28;20006;-74
2023/09/07 16:34:15;;;;;;;;;;;;;;;;;;5110754;28;19912;-74
2023/09/07 16:36:41;;;;;;;;;;;;;;;;;;5111125;28;19915;-74
2023/09/07 16:39:08;;;;;;;;;;;;;;;;;;5111090;28;20045;-74
2023/09/07 16:42:48;;;;;;;;;;;;;;;;;;5071438;28;19923;-73
2023/09/07 16:48:36;;;;;;;;;;;;;;;;;;5091047;27;19922;-73
2023/09/07 16:52:47;;;;;;;;;;;;;;;;;;5111915;27;19926;-72
2023/09/07 16:55:14;;;;;;;;;;;;;;;;;;5109982;28;20007;-73
2023/09/07 16:57:40;;;;;;;;;;;;;;;;;;5111617;28;19947;-72
2023/09/07 17:00:07;;;;;;;;;;;;;;;;;;5110326;28;20333;-73
2023/09/07 17:02:33;;;;;;;;;;;;;;;;;;5111074;28;19908;-73
2023/09/07 17:04:58;;;;;;;;;;;;;;;;;;5111779;28;19942;-73
2023/09/07 17:07:24;;;;;;;;;;;;;;;;;;5111454;28;19953;-73
2023/09/07 17:09:50;;;;;;;;;;;;;;;;;;5111062;28;19961;-73
2023/09/07 17:12:16;;;;;;;;;;;;;;;;;;5111333;28;19920;-74
2023/09/07 17:14:42;;;;;;;;;;;;;;;;;;5111350;28;19908;-73
2023/09/07 17:17:08;;;;;;;;;;;;;;;;;;5110333;28;19908;-73
2023/09/07 17:19:34;;;;;;;;;;;;;;;;;;5111180;28;19912;-72
2023/09/07 17:22:00;;;;;;;;;;;;;;;;;;5109528;28;19908;-73
2023/09/07 17:24:26;;;;;;;;;;;;;;;;;;5111099;28;19908;-72
2023/09/07 17:26:52;;;;;;;;;;;;;;;;;;5110993;28;19908;-72
2023/09/07 17:30:05;;;;;;;;;;;;;;;;;;5091171;27;19923;-73
2023/09/07 17:32:31;;;;;;;;;;;;;;;;;;5090493;28;19951;-72
2023/09/07 17:37:23;;;;;;;;;;;;;;;;;;5090889;27;19920;-73
2023/09/07 17:39:50;;;;;;;;;;;;;;;;;;5091157;28;19999;-72
2023/09/07 17:44:51;;;;;;;;;;;;;;;;;;5091031;28;19913;-73
2023/09/07 17:49:32;;;;;;;;;;;;;;;;;;5112338;27;19938;-72
2023/09/07 17:51:58;;;;;;;;;;;;;;;;;;5111365;28;20439;-74
2023/09/07 17:55:02;;;;;;;;;;;;;;;;;;5112412;27;19916;-73
2023/09/07 17:58:07;;;;;;;;;;;;;;;;;;5091361;27;19923;-73
2023/09/07 18:00:33;;;;;;;;;;;;;;;;;;5091289;28;19991;-74
2023/09/07 18:09:50;;;;;;;;;;;;;;;;;;5092214;27;19939;-74
2023/09/07 18:12:16;;;;;;;;;;;;;;;;;;5091108;28;19916;-74
2023/09/07 18:14:42;;;;;;;;;;;;;;;;;;5091692;28;19908;-73
2023/09/07 18:17:08;;;;;;;;;;;;;;;;;;5091337;28;20383;-73
2023/09/07 18:19:34;;;;;;;;;;;;;;;;;;5091073;28;19909;-73
2023/09/07 18:22:01;;;;;;;;;;;;;;;;;;5090011;28;19909;-73
2023/09/07 18:24:27;;;;;;;;;;;;;;;;;;5089855;28;19957;-75
2023/09/07 18:29:22;;;;;;;;;;;;;;;;;;5091765;27;19940;-73
2023/09/07 18:31:48;;;;;;;;;;;;;;;;;;5090031;28;20435;-74
2023/09/07 18:36:38;;;;;;;;;;;;;;;;;;5092049;28;19916;-73
2023/09/07 18:39:04;;;;;;;;;;;;;;;;;;5091430;28;20344;-73
2023/09/07 18:44:09;;;;;;;;;;;;;;;;;;5091940;27;19923;-73
2023/09/07 18:47:37;;;;;;;;;;;;;;;;;;5131064;27;19998;-73
2023/09/07 18:50:03;;;;;;;;;;;;;;;;;;5130990;28;19912;-74
2023/09/07 18:52:29;;;;;;;;;;;;;;;;;;5130874;28;20329;-74
2023/09/07 18:54:55;;;;;;;;;;;;;;;;;;5131891;27;20015;-74
2023/09/07 18:57:21;;;;;;;;;;;;;;;;;;5132059;27;20371;-74
2023/09/07 19:01:48;;;;;;;;;;;;;;;;;;5111613;27;19916;-72
2023/09/07 19:04:14;;;;;;;;;;;;;;;;;;5111633;28;19919;-73
2023/09/07 19:08:41;;;;;;;;;;;;;;;;;;5111325;27;19916;-72
2023/09/07 19:11:07;;;;;;;;;;;;;;;;;;5111618;28;19946;-73